Página principal
METAR-TAF:

METAR-TAF

Aeroportos :

Lançarote, Espanha

latitude: 28-57N, longitude: 013-36W, altura: 14 m

Observação actual do tempo

O boletim foi feito há 20 minutos, às 12:30 UTC
Vento 21 kt de norte
Temperatura 27°C
Humidade 58%
Pressão 1017 hPa
Visibilidade 10 km ou mais
Poucas nuvensa uma altura de 2500 ft

METAR: GCRR 201230Z 36021KT 9999 FEW025 27/18 Q1017

Hora: 13:50 (12:50 UTC)

Previsão

O boletim foi feito há 4 horas e 50 minutos, às 08:00 UTC
Previsão válida de 20 às 09 UTC a 21 às 09 UTC
Vento 20 kt de norte
Visibilidade 10 km ou mais
Poucas nuvensa uma altura de 2000 ft
Temporariamente
de 20 às 09 UTC a 21 às 09 UTC
Vento 20 kt de norte com rajadas de 30 kt

TAF: GCRR 200800Z 2009/2109 01020KT 9999 FEW020 TX28/2014Z TN20/2105Z TEMPO 2009/2109 01020G30KT

Observações e previsões do tempo de mais de 4000 aeroportos (mensagens METAR e TAF).

As estações disponíveis são os pontos amarelos e vermelhos sobre o mapa.

Mova o rato sobre o mapa para ver o nome da estação.

Depois clique no ponto para visualizar as observações e previsões meteorológicas.

Para alterar o mapa : clique nos botões verdes com uma cruz preta para aumentar o zoom; no botão verde com uma pitada de zoom; ou nas setas verdes para mapas adjacentes.


METAR-TAF: